Time;durP1;ratioP1;P1;durP2;ratioP2;P2;SDS_P1;SDS_P2;PMS_P1;PMS_P2;Temp;Humidity;BMP_temperature;BMP_pressure;BME280_temperature;BME280_humidity;BME280_pressure;Samples;Min_cycle;Max_cycle;Signal;HPM_P1;HPM_P2
2021/10/03 00:01:17;;;;;;;9.90;7.13;;;17.30;81.50;;;;;;5067055;28;21272;-73
2021/10/03 00:03:47;;;;;;;10.63;6.37;;;17.20;81.70;;;;;;5070657;28;20418;-74
2021/10/03 00:06:13;;;;;;;8.83;5.83;;;17.20;81.80;;;;;;5072373;28;20471;-73
2021/10/03 00:08:39;;;;;;;10.10;6.10;;;17.20;81.70;;;;;;5070046;28;20450;-73
2021/10/03 00:11:06;;;;;;;8.73;5.63;;;17.20;81.90;;;;;;5072161;28;20243;-74
2021/10/03 00:13:33;;;;;;;8.53;5.13;;;17.20;81.90;;;;;;5071782;28;20553;-73
2021/10/03 00:16:00;;;;;;;10.13;6.00;;;17.10;82.20;;;;;;5072502;28;20418;-73
2021/10/03 00:18:26;;;;;;;8.50;4.87;;;17.10;82.20;;;;;;5072268;28;20499;-74
2021/10/03 00:20:53;;;;;;;8.47;5.57;;;17.10;82.70;;;;;;5072090;28;20462;-73
2021/10/03 00:23:19;;;;;;;8.63;5.40;;;17.10;82.70;;;;;;5072019;28;20841;-74
2021/10/03 00:25:45;;;;;;;8.50;5.13;;;17.10;82.80;;;;;;5071134;28;20513;-73
2021/10/03 00:28:11;;;;;;;9.87;6.17;;;17.00;83.00;;;;;;5071040;28;20608;-74
2021/10/03 00:30:39;;;;;;;9.23;5.70;;;17.00;82.50;;;;;;5072582;28;20435;-75
2021/10/03 00:33:05;;;;;;;9.83;5.90;;;17.00;82.70;;;;;;5070719;28;20466;-74
2021/10/03 00:35:31;;;;;;;9.70;5.40;;;16.90;82.40;;;;;;5061713;28;20418;-73
2021/10/03 00:37:59;;;;;;;11.90;6.20;;;16.90;82.40;;;;;;5071056;28;20449;-73
2021/10/03 00:40:26;;;;;;;10.97;5.80;;;16.70;82.80;;;;;;5077836;28;20484;-74
2021/10/03 00:42:52;;;;;;;8.00;5.57;;;16.70;83.10;;;;;;5071747;28;20456;-73
2021/10/03 00:45:18;;;;;;;9.63;5.50;;;16.70;83.30;;;;;;5071648;28;20461;-72
2021/10/03 00:47:44;;;;;;;8.77;4.97;;;16.70;83.30;;;;;;5072183;28;20188;-76
2021/10/03 00:50:13;;;;;;;7.83;5.23;;;16.70;83.30;;;;;;5066416;28;20450;-73
2021/10/03 00:52:41;;;;;;;9.20;5.00;;;16.70;83.30;;;;;;5071621;28;20429;-75
2021/10/03 00:55:07;;;;;;;8.10;4.90;;;16.80;83.10;;;;;;5062805;28;20472;-75
2021/10/03 00:57:33;;;;;;;8.03;5.50;;;16.70;83.10;;;;;;5071912;28;20881;-73
2021/10/03 00:59:59;;;;;;;7.93;5.13;;;16.80;82.80;;;;;;5071543;28;20571;-73
2021/10/03 01:02:25;;;;;;;9.23;5.90;;;16.80;82.70;;;;;;5071780;28;20286;-73
2021/10/03 01:04:51;;;;;;;8.33;5.40;;;16.70;82.70;;;;;;5072796;28;20425;-75
2021/10/03 01:07:17;;;;;;;10.90;5.93;;;16.70;83.00;;;;;;5072881;28;20434;-73
2021/10/03 01:09:43;;;;;;;7.60;4.90;;;16.70;83.00;;;;;;5072125;28;20231;-75
2021/10/03 01:12:09;;;;;;;9.20;5.60;;;16.80;82.10;;;;;;5072570;28;20464;-72
2021/10/03 01:14:35;;;;;;;9.20;5.57;;;16.70;82.40;;;;;;5071716;28;20564;-76
2021/10/03 01:17:01;;;;;;;7.90;5.30;;;16.70;82.80;;;;;;5072251;28;20433;-74
2021/10/03 01:19:27;;;;;;;8.20;4.70;;;16.70;82.80;;;;;;5060015;28;20216;-73
2021/10/03 01:21:52;;;;;;;8.30;5.57;;;16.70;82.80;;;;;;5073419;28;20203;-73
2021/10/03 01:24:20;;;;;;;8.10;5.90;;;16.70;83.30;;;;;;5073789;28;20279;-74
2021/10/03 01:26:45;;;;;;;9.97;6.03;;;16.70;83.30;;;;;;5072265;28;20179;-73
2021/10/03 01:29:11;;;;;;;10.10;5.80;;;16.70;83.10;;;;;;5069601;28;20814;-75
2021/10/03 01:31:37;;;;;;;9.20;5.57;;;16.70;82.80;;;;;;5071521;28;20192;-75
2021/10/03 01:34:03;;;;;;;9.23;5.37;;;16.70;82.70;;;;;;5069462;28;20195;-73
2021/10/03 01:36:29;;;;;;;10.73;6.50;;;16.80;82.70;;;;;;5063338;28;20192;-74
2021/10/03 01:38:55;;;;;;;9.30;5.37;;;16.80;83.00;;;;;;5070331;28;20485;-73
2021/10/03 01:41:21;;;;;;;8.30;5.37;;;16.80;82.80;;;;;;5077355;28;20203;-72
2021/10/03 01:43:47;;;;;;;9.73;6.37;;;16.80;83.00;;;;;;5070674;28;20587;-73
2021/10/03 01:46:13;;;;;;;7.90;5.60;;;16.80;82.80;;;;;;5071405;28;20187;-74
2021/10/03 01:48:38;;;;;;;7.43;5.30;;;16.80;82.80;;;;;;5071012;28;20207;-74
2021/10/03 01:51:07;;;;;;;8.13;5.53;;;16.80;83.00;;;;;;5069821;28;20425;-74
2021/10/03 01:53:37;;;;;;;8.97;5.50;;;16.70;83.00;;;;;;5069887;28;20666;-73
2021/10/03 01:56:06;;;;;;;11.23;6.00;;;16.80;82.80;;;;;;5070568;28;20418;-73
2021/10/03 01:58:36;;;;;;;13.23;5.60;;;16.80;82.40;;;;;;5070205;28;20466;-75
2021/10/03 02:01:09;;;;;;;10.17;6.33;;;16.80;82.40;;;;;;5068577;28;20430;-74
2021/10/03 02:03:35;;;;;;;11.37;6.60;;;16.80;82.10;;;;;;5069761;28;20445;-73
2021/10/03 02:06:01;;;;;;;9.80;5.60;;;16.70;82.40;;;;;;5070550;28;20445;-73
2021/10/03 02:08:26;;;;;;;8.83;5.20;;;16.80;82.40;;;;;;5068847;28;20952;-73
2021/10/03 02:10:52;;;;;;;11.30;5.53;;;16.80;81.80;;;;;;5070375;28;20959;-73
2021/10/03 02:13:20;;;;;;;8.77;5.80;;;16.80;81.70;;;;;;5070235;28;20186;-72
2021/10/03 02:15:48;;;;;;;10.20;6.20;;;16.80;81.80;;;;;;5070498;28;20410;-73
2021/10/03 02:18:17;;;;;;;9.20;5.60;;;16.80;82.10;;;;;;5065517;28;20469;-74
2021/10/03 02:20:45;;;;;;;8.40;5.40;;;16.80;81.50;;;;;;5070629;28;20493;-74
2021/10/03 02:23:13;;;;;;;10.37;6.00;;;16.60;81.80;;;;;;5071167;28;20421;-74
2021/10/03 02:25:45;;;;;;;10.10;5.40;;;16.50;82.40;;;;;;5071219;28;20429;-72
2021/10/03 02:28:20;;;;;;;8.70;5.40;;;16.50;82.70;;;;;;5067443;28;20434;-74
2021/10/03 02:30:48;;;;;;;9.10;5.73;;;16.40;82.70;;;;;;5071823;28;20596;-74
2021/10/03 02:33:14;;;;;;;8.93;5.70;;;16.40;82.70;;;;;;5070432;28;20521;-73
2021/10/03 02:35:41;;;;;;;10.00;6.30;;;16.40;82.70;;;;;;5070439;28;20429;-73
2021/10/03 02:38:10;;;;;;;9.20;6.07;;;16.50;82.70;;;;;;5070023;28;20449;-72
2021/10/03 02:40:36;;;;;;;9.03;6.13;;;16.50;82.80;;;;;;5075426;28;20476;-73
2021/10/03 02:43:05;;;;;;;8.37;5.53;;;16.50;82.70;;;;;;5069736;28;20426;-74
2021/10/03 02:45:33;;;;;;;9.80;5.83;;;16.50;82.20;;;;;;5064123;28;20422;-74
2021/10/03 02:48:00;;;;;;;10.40;5.67;;;16.60;82.20;;;;;;5069965;28;20421;-74
2021/10/03 02:50:25;;;;;;;8.60;5.13;;;16.60;81.90;;;;;;5067837;28;20431;-74
2021/10/03 02:52:51;;;;;;;6.87;5.50;;;16.50;82.10;;;;;;5069726;28;20426;-73
2021/10/03 02:55:17;;;;;;;8.23;5.23;;;16.50;82.10;;;;;;5069348;28;20191;-73
2021/10/03 02:57:43;;;;;;;9.63;5.70;;;16.50;82.10;;;;;;5069887;28;20192;-73
2021/10/03 03:00:09;;;;;;;10.93;5.93;;;16.50;82.10;;;;;;5068818;28;20232;-74
2021/10/03 03:02:36;;;;;;;12.10;5.57;;;16.50;81.80;;;;;;5068978;28;20187;-73
2021/10/03 03:05:03;;;;;;;9.97;5.80;;;16.50;81.90;;;;;;5068697;28;20434;-73
2021/10/03 03:07:28;;;;;;;13.60;6.40;;;16.50;81.90;;;;;;5064691;28;20434;-73
2021/10/03 03:09:54;;;;;;;8.70;5.13;;;16.40;81.80;;;;;;5068692;28;20445;-74
2021/10/03 03:12:20;;;;;;;10.20;5.20;;;16.40;82.10;;;;;;5068820;28;20738;-72
2021/10/03 03:14:46;;;;;;;7.47;5.37;;;16.30;82.40;;;;;;5068840;28;20183;-72
2021/10/03 03:17:16;;;;;;;8.57;5.17;;;16.40;82.50;;;;;;5069328;28;20188;-73
2021/10/03 03:19:43;;;;;;;7.63;5.37;;;16.30;82.80;;;;;;5066040;28;20238;-73
2021/10/03 03:22:10;;;;;;;7.20;5.00;;;16.20;82.80;;;;;;5068920;28;20529;-72
2021/10/03 03:24:37;;;;;;;8.60;5.03;;;16.20;82.80;;;;;;5068864;28;20429;-73
2021/10/03 03:27:03;;;;;;;8.50;5.70;;;16.20;82.80;;;;;;5070505;28;20436;-73
2021/10/03 03:29:29;;;;;;;6.87;5.20;;;16.20;83.00;;;;;;5069978;28;20454;-74
2021/10/03 03:31:55;;;;;;;11.27;6.40;;;16.30;82.80;;;;;;5070046;28;20421;-74
2021/10/03 03:34:22;;;;;;;10.10;5.53;;;16.30;82.50;;;;;;5066030;28;20414;-73
2021/10/03 03:36:48;;;;;;;9.00;5.33;;;16.30;82.50;;;;;;5069026;28;20454;-73
2021/10/03 03:39:14;;;;;;;7.97;5.07;;;16.40;81.80;;;;;;5070525;28;20498;-72
2021/10/03 03:41:40;;;;;;;9.13;5.63;;;16.30;81.90;;;;;;5079862;28;20266;-72
2021/10/03 03:44:05;;;;;;;8.30;5.40;;;16.20;82.40;;;;;;5072054;28;20514;-73
2021/10/03 03:46:31;;;;;;;8.03;4.97;;;16.20;82.70;;;;;;5072806;28;20188;-72
2021/10/03 03:48:57;;;;;;;10.70;6.47;;;16.20;82.80;;;;;;5072043;28;20199;-73
2021/10/03 03:51:23;;;;;;;12.43;5.90;;;16.30;82.70;;;;;;5072776;28;20533;-73
2021/10/03 03:53:48;;;;;;;7.90;5.70;;;16.20;82.40;;;;;;5070861;28;20923;-72
2021/10/03 03:56:14;;;;;;;10.17;6.00;;;16.20;81.90;;;;;;5072667;28;20191;-74
2021/10/03 03:58:40;;;;;;;7.30;5.10;;;16.10;82.10;;;;;;5072458;28;20836;-73
2021/10/03 04:01:06;;;;;;;7.27;5.00;;;16.10;82.40;;;;;;5072475;28;20184;-74
2021/10/03 04:03:31;;;;;;;7.27;4.83;;;16.10;82.40;;;;;;5061564;28;20181;-74
2021/10/03 04:05:57;;;;;;;11.30;6.53;;;16.00;82.70;;;;;;5067815;28;20924;-74
2021/10/03 04:08:23;;;;;;;9.13;5.40;;;16.00;82.40;;;;;;5072142;28;20242;-72
2021/10/03 04:10:53;;;;;;;7.70;5.33;;;16.00;82.50;;;;;;5071970;28;20184;-73
2021/10/03 04:13:19;;;;;;;7.63;5.60;;;16.00;82.70;;;;;;5071867;28;20662;-74
2021/10/03 04:15:46;;;;;;;7.13;4.70;;;16.10;82.10;;;;;;5072035;28;20414;-74
2021/10/03 04:18:12;;;;;;;11.47;5.80;;;16.00;81.80;;;;;;5071882;28;20441;-73
2021/10/03 04:20:38;;;;;;;8.00;5.53;;;16.00;82.20;;;;;;5071829;28;20862;-73
2021/10/03 04:23:04;;;;;;;8.73;5.57;;;16.00;82.40;;;;;;5071699;28;20457;-72
2021/10/03 04:25:30;;;;;;;10.20;5.70;;;16.00;82.50;;;;;;5068379;28;20426;-73
2021/10/03 04:27:56;;;;;;;9.50;5.30;;;16.00;82.70;;;;;;5067728;28;20189;-74
2021/10/03 04:30:22;;;;;;;9.13;5.83;;;15.90;81.50;;;;;;5071953;28;20915;-73
2021/10/03 04:32:47;;;;;;;11.93;5.80;;;15.90;82.20;;;;;;5071771;28;20506;-77
2021/10/03 04:35:13;;;;;;;9.43;5.23;;;15.90;82.20;;;;;;5073171;28;20422;-73
2021/10/03 04:37:39;;;;;;;8.87;5.17;;;16.00;82.10;;;;;;5073968;28;20200;-73
2021/10/03 04:40:06;;;;;;;7.70;5.23;;;15.90;81.20;;;;;;5078883;28;20216;-72
2021/10/03 04:42:33;;;;;;;8.27;5.63;;;15.90;81.10;;;;;;5063142;28;20190;-73
2021/10/03 04:44:59;;;;;;;7.73;4.90;;;16.10;80.90;;;;;;5072404;28;20441;-73
2021/10/03 04:47:25;;;;;;;9.70;5.60;;;16.10;80.60;;;;;;5072413;28;20417;-72
2021/10/03 04:49:53;;;;;;;7.60;4.90;;;16.00;80.80;;;;;;5074477;28;20872;-73
2021/10/03 04:52:20;;;;;;;7.97;5.57;;;16.10;80.60;;;;;;5076616;28;20429;-73
2021/10/03 04:54:46;;;;;;;8.87;5.33;;;16.20;79.70;;;;;;5076565;28;20457;-74
2021/10/03 04:57:12;;;;;;;8.20;5.57;;;16.20;79.50;;;;;;5073487;28;20422;-72
2021/10/03 04:59:38;;;;;;;9.20;5.50;;;16.20;79.70;;;;;;5070716;28;20468;-72
2021/10/03 05:02:04;;;;;;;11.13;5.90;;;16.20;79.70;;;;;;5072274;28;20255;-71
2021/10/03 05:04:29;;;;;;;7.27;5.30;;;16.20;78.70;;;;;;5076531;28;20715;-73
2021/10/03 05:06:55;;;;;;;11.13;4.73;;;16.20;78.10;;;;;;5074163;28;20182;-72
2021/10/03 05:09:21;;;;;;;6.87;4.80;;;16.20;78.60;;;;;;5073691;28;20283;-72
2021/10/03 05:11:46;;;;;;;7.13;4.80;;;16.30;78.10;;;;;;5079506;28;20239;-73
2021/10/03 05:14:16;;;;;;;6.20;4.20;;;16.20;77.00;;;;;;5077501;28;20191;-73
2021/10/03 05:16:42;;;;;;;8.10;5.00;;;16.20;76.70;;;;;;5073495;28;20212;-72
2021/10/03 05:19:07;;;;;;;6.77;4.80;;;16.20;76.10;;;;;;5071753;28;20474;-73
2021/10/03 05:21:33;;;;;;;9.20;4.70;;;16.40;76.70;;;;;;5071517;28;20428;-73
2021/10/03 05:23:59;;;;;;;8.20;5.03;;;16.50;75.90;;;;;;5070302;28;20205;-73
2021/10/03 05:26:25;;;;;;;8.47;4.20;;;16.50;75.40;;;;;;5064378;28;20185;-73
2021/10/03 05:28:51;;;;;;;6.50;4.20;;;16.60;74.80;;;;;;5070538;28;20203;-73
2021/10/03 05:31:16;;;;;;;7.60;4.90;;;16.60;74.50;;;;;;5071298;28;20438;-73
2021/10/03 05:33:42;;;;;;;7.20;4.80;;;16.60;74.90;;;;;;5070244;28;20233;-74
2021/10/03 05:36:08;;;;;;;7.40;4.70;;;16.60;74.90;;;;;;5070740;28;20222;-73
2021/10/03 05:38:34;;;;;;;8.20;4.30;;;16.70;74.80;;;;;;5070084;28;20219;-73
2021/10/03 05:40:59;;;;;;;5.40;4.30;;;16.70;74.60;;;;;;5075334;28;20833;-73
2021/10/03 05:43:25;;;;;;;6.30;4.60;;;16.70;74.60;;;;;;5069652;28;20176;-72
2021/10/03 05:45:51;;;;;;;8.13;4.60;;;16.70;75.10;;;;;;5071463;28;20683;-73
2021/10/03 05:48:18;;;;;;;6.83;3.80;;;16.60;74.50;;;;;;5073736;28;20199;-73
2021/10/03 05:50:45;;;;;;;8.60;4.47;;;16.50;74.80;;;;;;5071772;28;20199;-73
2021/10/03 05:53:11;;;;;;;5.23;4.03;;;16.50;74.80;;;;;;5070123;28;20433;-72
2021/10/03 05:55:36;;;;;;;6.50;4.27;;;16.60;74.80;;;;;;5069835;28;20500;-74
2021/10/03 05:58:02;;;;;;;5.70;4.70;;;16.70;74.30;;;;;;5068697;28;20210;-73
2021/10/03 06:00:28;;;;;;;7.17;4.63;;;16.70;74.50;;;;;;5067670;28;20210;-73
2021/10/03 06:02:54;;;;;;;9.37;5.83;;;16.80;74.60;;;;;;5069925;28;20187;-73
2021/10/03 06:05:20;;;;;;;8.10;4.37;;;16.90;74.30;;;;;;5068793;28;20689;-73
2021/10/03 06:07:46;;;;;;;7.50;4.50;;;16.90;74.20;;;;;;5069977;28;20518;-73
2021/10/03 06:10:12;;;;;;;8.60;4.60;;;17.00;73.60;;;;;;5069553;28;20252;-74
2021/10/03 06:12:38;;;;;;;5.87;4.60;;;16.90;73.30;;;;;;5069814;28;20188;-73
2021/10/03 06:15:05;;;;;;;5.60;4.23;;;16.90;73.70;;;;;;5069502;28;20545;-72
2021/10/03 06:17:31;;;;;;;6.63;4.90;;;17.00;73.20;;;;;;5069965;28;20183;-73
2021/10/03 06:19:56;;;;;;;6.50;4.27;;;17.00;72.90;;;;;;5069445;28;20472;-72
2021/10/03 06:22:24;;;;;;;7.47;4.47;;;16.90;73.90;;;;;;5069515;28;20232;-73
2021/10/03 06:24:51;;;;;;;5.87;4.27;;;17.00;73.90;;;;;;5069831;28;20187;-73
2021/10/03 06:27:17;;;;;;;5.70;4.30;;;17.10;73.60;;;;;;5069854;28;20441;-73
2021/10/03 06:29:43;;;;;;;6.23;3.70;;;17.10;72.70;;;;;;5060518;28;20533;-73
2021/10/03 06:32:09;;;;;;;4.87;4.13;;;17.10;72.90;;;;;;5067847;28;20432;-72
2021/10/03 06:34:35;;;;;;;7.13;4.37;;;17.10;72.40;;;;;;5068769;28;20582;-72
2021/10/03 06:37:01;;;;;;;7.03;4.97;;;17.10;72.70;;;;;;5069903;28;20975;-70
2021/10/03 06:39:27;;;;;;;5.97;3.73;;;17.10;73.30;;;;;;5068577;28;20369;-72
2021/10/03 06:41:52;;;;;;;6.07;4.17;;;17.20;73.00;;;;;;5074623;28;20198;-72
2021/10/03 06:44:18;;;;;;;8.83;5.00;;;17.40;72.30;;;;;;5069254;28;20217;-73
2021/10/03 06:46:44;;;;;;;8.57;4.67;;;17.50;72.30;;;;;;5069869;28;20202;-72
2021/10/03 06:49:09;;;;;;;6.73;4.50;;;17.60;71.60;;;;;;5069088;28;20648;-73
2021/10/03 06:51:35;;;;;;;6.70;4.40;;;17.70;71.10;;;;;;5069263;28;20194;-73
2021/10/03 06:54:02;;;;;;;10.70;4.97;;;17.90;70.80;;;;;;5069341;28;20187;-72
2021/10/03 06:56:28;;;;;;;11.30;5.30;;;18.10;70.50;;;;;;5069553;28;20916;-73
2021/10/03 06:58:53;;;;;;;6.87;4.17;;;18.00;69.10;;;;;;5069195;28;20472;-72
2021/10/03 07:01:19;;;;;;;6.83;4.10;;;18.10;69.70;;;;;;5069539;28;20686;-71
2021/10/03 07:03:47;;;;;;;4.70;3.77;;;18.20;68.50;;;;;;5068755;28;20552;-71
2021/10/03 07:06:13;;;;;;;5.27;3.50;;;18.30;67.00;;;;;;5067979;28;20191;-74
2021/10/03 07:08:39;;;;;;;6.80;4.20;;;18.40;66.70;;;;;;5069420;28;20450;-73
2021/10/03 07:11:05;;;;;;;7.23;4.50;;;18.40;66.90;;;;;;5069666;28;20595;-74
2021/10/03 07:13:31;;;;;;;6.67;4.50;;;18.50;67.30;;;;;;5072776;28;20415;-71
2021/10/03 07:15:57;;;;;;;5.97;4.00;;;18.60;67.90;;;;;;5073287;28;20953;-72
2021/10/03 07:18:22;;;;;;;8.50;4.80;;;18.50;67.00;;;;;;5071711;28;20539;-71
2021/10/03 07:20:49;;;;;;;5.93;4.03;;;18.50;67.30;;;;;;5073917;28;20289;-72
2021/10/03 07:23:15;;;;;;;7.67;5.20;;;18.70;66.40;;;;;;5073817;28;20189;-72
2021/10/03 07:25:41;;;;;;;8.27;4.73;;;18.70;66.70;;;;;;5074571;28;20497;-71
2021/10/03 07:28:07;;;;;;;5.50;4.00;;;18.80;68.00;;;;;;5074706;28;20226;-72
2021/10/03 07:30:32;;;;;;;6.40;4.30;;;18.90;67.50;;;;;;5072627;28;20201;-73
2021/10/03 07:32:58;;;;;;;6.53;4.30;;;18.90;66.90;;;;;;5073813;28;20432;-71
2021/10/03 07:35:24;;;;;;;8.07;4.50;;;19.00;66.30;;;;;;5074347;28;20194;-72
2021/10/03 07:37:50;;;;;;;8.87;4.47;;;19.10;66.60;;;;;;5074035;28;20286;-73
2021/10/03 07:40:16;;;;;;;6.77;4.10;;;19.20;65.60;;;;;;5079511;28;20224;-72
2021/10/03 07:42:43;;;;;;;5.27;4.20;;;19.30;65.10;;;;;;5073429;28;20178;-72
2021/10/03 07:45:10;;;;;;;9.50;5.03;;;19.40;65.80;;;;;;5073667;28;20196;-73
2021/10/03 07:47:36;;;;;;;6.07;4.10;;;19.40;64.80;;;;;;5073706;28;20428;-72
2021/10/03 07:50:03;;;;;;;7.80;4.20;;;19.50;65.40;;;;;;5074065;28;20438;-71
2021/10/03 07:52:28;;;;;;;4.20;3.40;;;19.50;64.50;;;;;;5074330;28;20262;-72
2021/10/03 07:54:54;;;;;;;5.77;4.23;;;19.50;64.20;;;;;;5074056;28;20528;-73
2021/10/03 07:57:20;;;;;;;10.30;4.10;;;19.50;63.70;;;;;;5073301;28;20400;-72
2021/10/03 07:59:46;;;;;;;8.90;4.30;;;19.50;64.10;;;;;;5072234;28;20267;-72
2021/10/03 08:02:12;;;;;;;5.90;4.20;;;19.50;64.70;;;;;;5074134;28;20180;-74
2021/10/03 08:04:37;;;;;;;5.13;3.70;;;19.60;64.70;;;;;;5073177;28;20426;-72
2021/10/03 08:07:03;;;;;;;5.30;3.63;;;19.70;63.90;;;;;;5074113;28;20211;-72
2021/10/03 08:09:29;;;;;;;7.63;4.97;;;19.80;63.70;;;;;;5073084;28;20200;-72
2021/10/03 08:11:55;;;;;;;5.87;4.20;;;19.80;64.20;;;;;;5074279;28;20422;-74
2021/10/03 08:14:21;;;;;;;11.40;5.27;;;19.90;64.80;;;;;;5074070;28;20248;-73
2021/10/03 08:16:47;;;;;;;6.03;4.00;;;20.00;64.10;;;;;;5074076;28;20206;-71
2021/10/03 08:19:13;;;;;;;8.17;4.40;;;20.10;62.50;;;;;;5072006;28;20505;-72
2021/10/03 08:21:39;;;;;;;6.17;4.27;;;20.20;61.90;;;;;;5072465;28;20428;-73
2021/10/03 08:24:05;;;;;;;11.43;4.37;;;20.30;62.20;;;;;;5071487;28;20234;-73
2021/10/03 08:26:31;;;;;;;6.63;4.10;;;20.40;62.30;;;;;;5072493;28;20315;-72
2021/10/03 08:28:57;;;;;;;6.13;4.30;;;20.40;63.10;;;;;;5072246;28;20549;-73
2021/10/03 08:31:23;;;;;;;8.83;4.83;;;20.50;62.50;;;;;;5071083;28;20994;-73
2021/10/03 08:33:49;;;;;;;8.00;4.97;;;20.60;62.50;;;;;;5074282;28;20422;-73
2021/10/03 08:36:15;;;;;;;7.00;4.43;;;20.60;63.50;;;;;;5072210;28;20561;-72
2021/10/03 08:38:41;;;;;;;9.90;4.70;;;20.60;61.70;;;;;;5072016;28;20742;-73
2021/10/03 08:41:07;;;;;;;8.13;3.97;;;20.50;60.70;;;;;;5080379;28;20492;-74
2021/10/03 08:43:33;;;;;;;7.70;4.70;;;20.50;61.70;;;;;;5071733;28;20193;-72
2021/10/03 08:45:59;;;;;;;8.07;5.00;;;20.50;62.20;;;;;;5072112;28;20476;-73
2021/10/03 08:48:26;;;;;;;8.87;4.43;;;20.50;60.40;;;;;;5071520;28;20268;-73
2021/10/03 08:50:51;;;;;;;7.33;3.90;;;20.50;61.20;;;;;;5073560;28;20435;-73
2021/10/03 08:53:18;;;;;;;6.03;4.10;;;20.50;61.70;;;;;;5073274;28;20426;-74
2021/10/03 08:55:45;;;;;;;6.10;4.13;;;20.50;62.20;;;;;;5072280;28;20238;-74
2021/10/03 08:58:11;;;;;;;5.60;3.80;;;20.50;62.50;;;;;;5072233;28;20448;-75
2021/10/03 09:00:46;;;;;;;7.53;4.13;;;20.60;62.90;;;;;;5073166;28;20983;-73
2021/10/03 09:03:12;;;;;;;5.90;4.00;;;20.70;63.10;;;;;;5064973;28;20450;-74
2021/10/03 09:05:40;;;;;;;10.60;5.50;;;20.70;62.50;;;;;;5071664;28;20940;-73
2021/10/03 09:08:10;;;;;;;5.40;3.77;;;20.70;63.40;;;;;;5071147;28;20427;-74
2021/10/03 09:11:03;;;;;;;6.00;3.97;;;20.70;63.50;;;;;;5071883;28;20419;-73
2021/10/03 09:13:31;;;;;;;7.87;5.13;;;20.70;62.90;;;;;;5069425;28;20426;-73
2021/10/03 09:16:06;;;;;;;5.10;3.90;;;20.60;61.70;;;;;;5071743;28;20922;-73
2021/10/03 09:18:51;;;;;;;4.80;3.43;;;20.70;60.70;;;;;;5063081;28;21030;-74
2021/10/03 09:21:29;;;;;;;5.20;3.03;;;20.60;59.90;;;;;;5070936;28;20440;-74
2021/10/03 09:23:58;;;;;;;8.83;3.37;;;20.80;60.60;;;;;;5071290;28;20435;-71
2021/10/03 09:26:25;;;;;;;5.67;3.30;;;20.80;60.60;;;;;;5071867;28;20427;-73
2021/10/03 09:28:51;;;;;;;5.53;3.50;;;21.00;59.50;;;;;;5071461;28;20447;-74
2021/10/03 09:31:18;;;;;;;5.70;3.90;;;21.00;59.50;;;;;;5069154;28;20443;-74
2021/10/03 09:34:01;;;;;;;5.67;3.77;;;21.10;59.70;;;;;;5071046;28;20192;-73
2021/10/03 09:36:34;;;;;;;5.80;3.57;;;21.20;59.50;;;;;;5071197;28;20932;-72
2021/10/03 09:39:08;;;;;;;4.33;3.10;;;21.30;60.00;;;;;;5069615;28;20464;-74
2021/10/03 09:41:37;;;;;;;5.13;3.27;;;21.30;59.90;;;;;;5076447;28;20442;-72
2021/10/03 09:44:11;;;;;;;4.60;3.70;;;21.40;59.30;;;;;;5070225;28;20601;-71
2021/10/03 09:46:51;;;;;;;12.27;8.00;;;21.40;59.10;;;;;;5070984;28;20801;-73
2021/10/03 09:49:26;;;;;;;6.47;4.00;;;21.50;60.00;;;;;;5068821;28;20456;-74
2021/10/03 09:51:53;;;;;;;5.67;3.77;;;21.50;60.30;;;;;;5063473;28;20421;-72
2021/10/03 09:54:21;;;;;;;4.57;3.03;;;21.60;62.20;;;;;;5068898;28;20424;-73
2021/10/03 09:56:48;;;;;;;6.43;3.83;;;21.60;61.30;;;;;;5069194;28;20427;-73
2021/10/03 09:59:14;;;;;;;8.10;4.13;;;21.60;62.20;;;;;;5068725;28;20559;-72
2021/10/03 10:01:45;;;;;;;5.23;3.90;;;21.40;60.10;;;;;;5070117;28;20428;-74
2021/10/03 10:04:15;;;;;;;4.77;3.80;;;21.30;60.30;;;;;;5069104;28;20439;-72
2021/10/03 10:06:43;;;;;;;7.80;4.57;;;21.30;60.40;;;;;;5068897;28;20460;-71
2021/10/03 10:09:22;;;;;;;12.63;4.97;;;21.30;61.60;;;;;;5072504;28;20458;-73
2021/10/03 10:12:07;;;;;;;5.60;4.13;;;21.30;62.00;;;;;;5069555;28;20518;-73
2021/10/03 10:14:39;;;;;;;4.53;3.73;;;21.30;62.20;;;;;;5084198;28;20442;-73
2021/10/03 10:17:35;;;;;;;6.70;4.50;;;21.20;61.50;;;;;;5070364;28;20789;-73
2021/10/03 10:20:27;;;;;;;8.00;4.57;;;21.30;61.50;;;;;;5070203;28;20572;-73
2021/10/03 10:22:53;;;;;;;7.63;4.43;;;21.40;61.20;;;;;;5066427;28;20611;-73
2021/10/03 10:25:43;;;;;;;7.73;4.50;;;21.60;62.60;;;;;;5069446;28;20454;-73
2021/10/03 10:28:21;;;;;;;5.47;4.03;;;21.80;62.60;;;;;;5067109;28;20294;-72
2021/10/03 10:31:08;;;;;;;9.43;6.03;;;21.90;63.20;;;;;;5070566;28;20440;-73
2021/10/03 10:33:49;;;;;;;5.87;4.70;;;22.10;63.40;;;;;;5068351;28;20429;-72
2021/10/03 10:36:24;;;;;;;11.20;4.13;;;22.20;64.10;;;;;;5067800;28;20425;-73
2021/10/03 10:39:08;;;;;;;6.23;4.03;;;22.20;60.60;;;;;;5069283;28;20488;-72
2021/10/03 10:41:39;;;;;;;8.07;4.20;;;22.10;61.00;;;;;;5075836;28;20425;-73
2021/10/03 10:44:23;;;;;;;6.63;4.20;;;22.00;61.30;;;;;;5070474;28;20492;-72
2021/10/03 10:46:54;;;;;;;5.30;3.70;;;22.10;62.60;;;;;;5069237;28;20421;-72
2021/10/03 10:49:40;;;;;;;9.23;3.60;;;22.20;61.20;;;;;;5071205;28;20447;-75
2021/10/03 10:52:18;;;;;;;5.63;3.40;;;22.10;61.70;;;;;;5068660;28;20429;-73
2021/10/03 10:55:04;;;;;;;7.37;4.20;;;22.20;61.90;;;;;;5069547;28;20529;-72
2021/10/03 10:57:31;;;;;;;6.07;4.43;;;22.30;61.60;;;;;;5069262;28;20425;-73
2021/10/03 11:00:19;;;;;;;8.80;5.10;;;22.40;62.60;;;;;;5068877;28;20475;-73
2021/10/03 11:02:50;;;;;;;6.27;4.00;;;22.40;62.30;;;;;;5069015;28;20519;-72
2021/10/03 11:05:37;;;;;;;6.13;3.70;;;22.50;61.90;;;;;;5068906;28;20416;-72
2021/10/03 11:08:11;;;;;;;5.80;4.07;;;22.60;62.20;;;;;;5065058;28;20466;-73
2021/10/03 11:10:59;;;;;;;6.47;4.23;;;22.60;62.60;;;;;;5069481;28;20421;-73
2021/10/03 11:13:40;;;;;;;9.77;5.03;;;22.50;62.50;;;;;;5068322;28;20568;-75
2021/10/03 11:16:29;;;;;;;6.07;4.23;;;22.50;63.40;;;;;;5069248;28;20453;-73
2021/10/03 11:19:14;;;;;;;5.00;3.87;;;22.50;64.50;;;;;;5068847;28;20531;-72
2021/10/03 11:21:42;;;;;;;6.23;4.43;;;22.50;64.80;;;;;;5068806;28;20421;-74
2021/10/03 11:24:24;;;;;;;5.10;3.50;;;22.40;65.00;;;;;;5069046;28;21009;-72
2021/10/03 11:26:57;;;;;;;6.57;4.03;;;22.40;66.90;;;;;;5064377;28;20424;-72
2021/10/03 11:29:25;;;;;;;4.37;3.50;;;22.40;66.30;;;;;;5068855;28;20533;-72
2021/10/03 11:31:55;;;;;;;7.43;5.77;;;22.40;66.00;;;;;;5069056;28;20442;-72
2021/10/03 11:34:33;;;;;;;6.37;4.90;;;22.40;66.40;;;;;;5062263;28;20413;-74
2021/10/03 11:37:25;;;;;;;5.90;4.00;;;22.50;67.20;;;;;;5069433;28;20410;-74
2021/10/03 11:39:54;;;;;;;5.13;4.27;;;22.60;65.60;;;;;;5067176;28;20838;-73
2021/10/03 11:42:25;;;;;;;7.00;4.60;;;22.70;67.20;;;;;;5069938;28;20448;-73
2021/10/03 11:45:07;;;;;;;9.70;4.87;;;22.70;68.00;;;;;;5069274;28;20425;-73
2021/10/03 11:47:51;;;;;;;9.43;5.77;;;22.80;68.60;;;;;;5068871;28;20502;-71
2021/10/03 11:50:23;;;;;;;6.60;4.47;;;22.70;67.50;;;;;;5068935;28;20423;-72
2021/10/03 11:52:49;;;;;;;11.23;5.03;;;22.70;69.20;;;;;;5068650;28;20425;-74
2021/10/03 11:55:20;;;;;;;6.63;4.33;;;22.60;69.40;;;;;;5067165;28;20466;-72
2021/10/03 11:57:50;;;;;;;5.10;4.10;;;22.60;70.10;;;;;;5068360;28;20505;-72
2021/10/03 12:00:22;;;;;;;7.23;4.83;;;22.60;70.40;;;;;;5072330;28;20460;-72
2021/10/03 12:02:51;;;;;;;7.10;4.60;;;22.60;70.40;;;;;;5071458;28;20427;-71
2021/10/03 12:05:26;;;;;;;10.33;6.90;;;22.60;70.10;;;;;;5072402;28;20415;-74
2021/10/03 12:08:11;;;;;;;8.47;5.40;;;22.60;69.80;;;;;;5072267;28;20422;-71
2021/10/03 12:11:07;;;;;;;8.87;5.77;;;22.60;70.40;;;;;;5072080;28;20421;-72
2021/10/03 12:13:34;;;;;;;7.23;4.97;;;22.60;70.50;;;;;;5073365;28;20430;-72
2021/10/03 12:16:01;;;;;;;5.80;4.20;;;22.60;69.20;;;;;;5074642;28;20509;-73
2021/10/03 12:18:27;;;;;;;6.20;3.90;;;22.50;69.40;;;;;;5072725;28;20431;-72
2021/10/03 12:21:00;;;;;;;9.53;6.83;;;22.50;69.90;;;;;;5075606;28;20473;-73
2021/10/03 12:23:44;;;;;;;9.07;4.93;;;22.50;68.30;;;;;;5077094;28;20206;-72
2021/10/03 12:26:37;;;;;;;14.63;9.10;;;22.50;66.30;;;;;;5073951;28;20789;-72
2021/10/03 12:29:05;;;;;;;10.77;5.80;;;22.60;67.20;;;;;;5072577;28;20442;-74
2021/10/03 12:31:48;;;;;;;7.00;4.70;;;22.80;66.40;;;;;;5064789;28;20454;-73
2021/10/03 12:34:13;;;;;;;10.30;5.77;;;22.90;66.70;;;;;;5072948;28;20820;-72
2021/10/03 12:36:54;;;;;;;14.30;6.60;;;23.10;66.70;;;;;;5077460;28;20471;-71
2021/10/03 12:39:20;;;;;;;7.20;4.57;;;23.20;66.10;;;;;;5071888;28;20260;-72
2021/10/03 12:41:48;;;;;;;4.90;3.73;;;23.20;67.50;;;;;;5078751;28;20463;-73
2021/10/03 12:44:14;;;;;;;13.90;4.10;;;23.30;67.50;;;;;;5074276;28;20790;-73
2021/10/03 12:46:40;;;;;;;6.70;4.40;;;23.30;66.90;;;;;;5073655;28;20433;-76
2021/10/03 12:49:05;;;;;;;6.20;4.40;;;23.40;66.90;;;;;;5071810;28;20803;-73
2021/10/03 12:51:31;;;;;;;7.77;3.70;;;23.50;67.50;;;;;;5070723;28;20183;-74
2021/10/03 12:53:57;;;;;;;7.17;4.90;;;23.80;67.30;;;;;;5071616;28;20180;-73